Time;durP1;ratioP1;P1;durP2;ratioP2;P2;SDS_P1;SDS_P2;PMS_P1;PMS_P2;Temp;Humidity;BMP_temperature;BMP_pressure;BME280_temperature;BME280_humidity;BME280_pressure;Samples;Min_cycle;Max_cycle;Signal;HPM_P1;HPM_P2
2021/07/13 00:00:29;;;;;;;3.40;2.20;;;;;;;21.74;62.04;97187.72;8382727;28;20202;-64
2021/07/13 00:04:34;;;;;;;4.23;2.20;;;;;;;21.81;62.91;97195.81;8383008;28;20206;-64
2021/07/13 00:08:38;;;;;;;5.07;2.20;;;;;;;21.78;62.63;97215.41;8382536;28;20231;-64
2021/07/13 00:12:41;;;;;;;4.23;2.20;;;;;;;21.65;62.30;97210.56;8382582;28;20392;-64
2021/07/13 00:16:44;;;;;;;4.70;2.23;;;;;;;21.69;62.58;97192.63;8381599;28;20226;-64
2021/07/13 00:20:47;;;;;;;5.47;2.40;;;;;;;21.58;63.19;97188.44;8382194;28;20203;-64
2021/07/13 00:24:51;;;;;;;6.17;2.37;;;;;;;21.59;63.60;97203.28;8382224;28;20211;-64
2021/07/13 00:28:54;;;;;;;4.37;2.10;;;;;;;21.58;62.94;97204.25;8382026;28;20235;-64
2021/07/13 00:32:56;;;;;;;6.17;2.50;;;;;;;21.58;63.11;97211.34;8382111;28;20214;-64
2021/07/13 00:36:59;;;;;;;8.03;2.40;;;;;;;21.52;62.76;97196.97;8381792;28;20210;-64
2021/07/13 00:41:03;;;;;;;6.00;2.70;;;;;;;21.43;62.89;97172.38;8381782;28;20511;-64
2021/07/13 00:45:07;;;;;;;6.13;2.50;;;;;;;21.32;63.80;97166.53;8381715;28;20202;-64
2021/07/13 00:49:11;;;;;;;4.07;2.30;;;;;;;21.35;63.70;97184.66;8381549;28;20231;-64
2021/07/13 00:53:14;;;;;;;5.57;2.50;;;;;;;21.33;63.65;97184.81;8381614;28;20207;-64
2021/07/13 00:57:19;;;;;;;2.63;2.30;;;;;;;21.34;63.20;97175.09;8381316;28;20209;-64
2021/07/13 01:01:22;;;;;;;4.33;2.40;;;;;;;21.21;63.21;97157.06;8381471;28;20201;-64
2021/07/13 01:05:26;;;;;;;3.63;2.30;;;;;;;21.22;63.25;97156.09;8381067;28;20222;-64
2021/07/13 01:09:39;;;;;;;2.77;2.40;;;;;;;21.19;63.69;97173.06;8381158;28;20228;-64
2021/07/13 01:13:50;;;;;;;5.20;2.10;;;;;;;21.19;62.97;97167.78;8381485;28;20213;-64
2021/07/13 01:17:57;;;;;;;3.87;2.37;;;;;;;21.14;62.87;97164.78;8381224;28;20204;-65
2021/07/13 01:22:01;;;;;;;5.20;2.43;;;;;;;21.09;63.24;97170.53;8381108;28;20199;-65
2021/07/13 01:26:09;;;;;;;6.00;2.37;;;;;;;21.12;63.46;97171.19;8380461;28;20262;-64
2021/07/13 01:30:16;;;;;;;4.80;2.30;;;;;;;21.13;63.39;97178.91;8380824;28;20330;-64
2021/07/13 01:34:20;;;;;;;5.10;2.30;;;;;;;21.09;63.43;97177.56;8380844;28;20200;-64
2021/07/13 01:38:26;;;;;;;5.97;2.50;;;;;;;21.09;63.21;97167.03;8381070;28;20532;-64
2021/07/13 01:42:29;;;;;;;4.20;2.47;;;;;;;21.04;63.32;97150.91;8381114;28;20211;-64
2021/07/13 01:46:33;;;;;;;4.90;2.23;;;;;;;21.01;63.63;97149.38;8380816;28;20308;-65
2021/07/13 01:50:36;;;;;;;5.50;2.50;;;;;;;20.98;63.70;97128.66;8380861;28;20510;-64
2021/07/13 01:54:40;;;;;;;3.80;2.30;;;;;;;20.91;64.26;97124.97;8380712;28;20218;-64
2021/07/13 01:58:44;;;;;;;5.33;2.70;;;;;;;20.97;63.74;97116.47;8380570;28;20214;-64
2021/07/13 02:02:48;;;;;;;5.53;2.67;;;;;;;20.92;64.19;97120.53;8380395;28;20203;-64
2021/07/13 02:06:51;;;;;;;5.10;2.30;;;;;;;20.92;63.86;97115.25;8380288;28;20546;-64
2021/07/13 02:10:55;;;;;;;4.43;2.47;;;;;;;20.86;63.81;97116.69;8380217;28;20212;-64
2021/07/13 02:14:57;;;;;;;8.40;2.60;;;;;;;20.81;63.78;97111.91;8380183;28;20202;-64
2021/07/13 02:19:02;;;;;;;5.23;2.40;;;;;;;20.82;63.34;97125.88;8380123;28;20210;-64
2021/07/13 02:23:05;;;;;;;5.93;2.87;;;;;;;20.77;63.95;97130.78;8380298;28;20214;-64
2021/07/13 02:27:14;;;;;;;5.83;2.50;;;;;;;20.81;63.74;97124.22;8380071;28;20517;-64
2021/07/13 02:31:24;;;;;;;5.00;2.50;;;;;;;20.77;63.76;97110.56;8379899;28;20236;-64
2021/07/13 02:35:36;;;;;;;5.30;2.70;;;;;;;20.82;63.52;97128.53;8379923;28;20234;-64
2021/07/13 02:39:39;;;;;;;6.03;3.10;;;;;;;20.82;63.47;97121.44;8382778;28;20208;-64
2021/07/13 02:43:42;;;;;;;5.37;2.90;;;;;;;20.81;64.50;97122.44;8385834;28;20203;-65
2021/07/13 02:47:47;;;;;;;7.90;2.83;;;;;;;20.82;63.71;97123.25;8385953;28;20243;-64
2021/07/13 02:51:53;;;;;;;4.97;2.83;;;;;;;20.85;63.73;97128.22;8411215;28;20208;-66
2021/07/13 02:55:58;;;;;;;5.97;2.70;;;;;;;20.86;64.28;97128.06;8418783;28;20221;-64
2021/07/13 03:00:01;;;;;;;6.73;2.67;;;;;;;20.85;63.95;97133.50;8418603;28;20507;-64
2021/07/13 03:04:05;;;;;;;4.23;2.50;;;;;;;20.81;64.08;97143.50;8418726;28;20203;-64
2021/07/13 03:08:09;;;;;;;3.60;2.60;;;;;;;20.85;63.51;97160.63;8418226;28;20226;-64
2021/07/13 03:12:12;;;;;;;3.73;2.90;;;;;;;20.79;64.03;97155.13;8418551;28;20202;-64
2021/07/13 03:16:15;;;;;;;3.43;2.60;;;;;;;20.78;64.14;97148.22;8419002;28;20202;-64
2021/07/13 03:20:18;;;;;;;9.60;2.70;;;;;;;20.69;64.37;97137.66;8418679;28;20210;-64
2021/07/13 03:24:23;;;;;;;3.63;2.33;;;;;;;20.69;64.39;97126.28;8417919;28;20206;-64
2021/07/13 03:28:27;;;;;;;3.73;2.90;;;;;;;20.67;64.67;97120.34;8417394;28;20235;-64
2021/07/13 03:32:32;;;;;;;4.93;2.73;;;;;;;20.73;64.06;97116.28;8417721;28;20276;-64
2021/07/13 03:36:36;;;;;;;6.37;2.93;;;;;;;20.78;64.08;97109.56;8417649;28;20425;-64
2021/07/13 03:40:42;;;;;;;5.47;2.83;;;;;;;20.64;64.98;97100.44;8417418;28;20206;-64
2021/07/13 03:44:45;;;;;;;5.47;3.00;;;;;;;20.68;64.42;97085.19;8417720;28;20253;-64
2021/07/13 03:48:49;;;;;;;3.57;2.70;;;;;;;20.63;64.36;97082.16;8416912;28;20458;-64
2021/07/13 03:52:52;;;;;;;7.00;2.97;;;;;;;20.54;65.15;97077.78;8392851;28;20222;-64
2021/07/13 03:56:56;;;;;;;4.23;2.67;;;;;;;20.64;64.00;97076.75;8383736;28;20233;-64
2021/07/13 04:00:59;;;;;;;5.03;2.53;;;;;;;20.56;64.50;97063.53;8383535;28;20233;-64
2021/07/13 04:05:02;;;;;;;2.77;2.50;;;;;;;20.51;64.83;97042.09;8383442;28;20217;-64
2021/07/13 04:09:06;;;;;;;5.37;2.90;;;;;;;20.46;65.29;97033.84;8383715;28;20341;-64
2021/07/13 04:13:10;;;;;;;6.50;2.73;;;;;;;20.44;65.23;97041.06;8383755;28;20199;-64
2021/07/13 04:17:13;;;;;;;5.33;3.03;;;;;;;20.56;64.59;97045.13;8383046;28;20218;-64
2021/07/13 04:21:16;;;;;;;3.63;2.30;;;;;;;20.60;63.74;97045.63;8383204;28;20203;-64
2021/07/13 04:25:19;;;;;;;3.67;2.30;;;;;;;20.63;63.19;97054.06;8393442;28;20200;-64
2021/07/13 04:29:23;;;;;;;3.87;2.07;;;;;;;20.68;62.79;97058.88;8415224;28;20262;-64
2021/07/13 04:33:26;;;;;;;4.90;2.27;;;;;;;20.83;62.30;97053.88;8415184;28;20203;-64
2021/07/13 04:37:30;;;;;;;6.70;2.53;;;;;;;20.82;62.18;97053.03;8415388;28;20226;-64
2021/07/13 04:41:32;;;;;;;3.87;2.50;;;;;;;20.74;62.64;97076.66;8415105;28;20200;-64
2021/07/13 04:45:37;;;;;;;4.37;2.60;;;;;;;20.87;62.57;97071.00;8414989;28;20237;-64
2021/07/13 04:49:39;;;;;;;6.43;2.60;;;;;;;20.88;62.82;97070.00;8414542;28;20556;-64
2021/07/13 04:53:42;;;;;;;4.53;2.80;;;;;;;20.99;62.81;97059.22;8415195;28;20202;-64
2021/07/13 04:57:45;;;;;;;6.43;3.10;;;;;;;21.00;63.27;97054.78;8406505;28;20201;-64
2021/07/13 05:01:49;;;;;;;4.13;3.10;;;;;;;21.08;63.52;97054.84;8395565;28;20255;-64
2021/07/13 05:05:53;;;;;;;6.30;3.17;;;;;;;21.12;63.55;97055.38;8413808;28;20244;-64
2021/07/13 05:09:56;;;;;;;4.47;3.43;;;;;;;21.13;63.05;97060.44;8406564;28;20219;-64
2021/07/13 05:13:58;;;;;;;4.67;3.40;;;;;;;21.24;63.34;97070.72;8392223;28;20202;-64
2021/07/13 05:18:03;;;;;;;6.87;3.20;;;;;;;21.34;62.04;97073.22;8395366;28;20214;-64
2021/07/13 05:22:09;;;;;;;6.63;3.20;;;;;;;21.45;62.27;97064.25;8397219;28;20490;-64
2021/07/13 05:26:11;;;;;;;5.13;3.17;;;;;;;21.45;62.84;97072.97;8397418;28;20211;-64
2021/07/13 05:30:16;;;;;;;8.40;3.10;;;;;;;21.56;62.16;97069.25;8397613;28;20219;-64
2021/07/13 05:34:21;;;;;;;3.23;2.90;;;;;;;21.64;62.04;97060.53;8384728;28;20204;-64
2021/07/13 05:38:23;;;;;;;3.37;3.00;;;;;;;21.63;62.39;97064.19;8414378;28;20210;-64
2021/07/13 05:42:26;;;;;;;4.77;3.20;;;;;;;21.73;62.29;97070.13;8414458;28;20206;-64
2021/07/13 05:46:29;;;;;;;5.07;3.00;;;;;;;21.85;62.50;97073.28;8414401;28;20391;-63
2021/07/13 05:50:34;;;;;;;7.67;2.97;;;;;;;21.83;61.87;97068.16;8414281;28;20449;-64
2021/07/13 05:54:36;;;;;;;3.70;2.97;;;;;;;21.83;61.54;97070.81;8414260;28;20202;-63
2021/07/13 05:58:43;;;;;;;9.10;2.93;;;;;;;21.83;62.01;97070.81;8414274;28;20250;-64
2021/07/13 06:02:46;;;;;;;4.10;2.40;;;;;;;21.93;61.81;97061.94;8411005;28;20196;-66
2021/07/13 06:06:50;;;;;;;7.13;2.57;;;;;;;21.82;62.99;97065.72;8407629;28;20212;-66
2021/07/13 06:10:53;;;;;;;8.83;2.67;;;;;;;21.85;63.05;97060.09;8392795;28;20226;-66
2021/07/13 06:14:55;;;;;;;5.77;2.93;;;;;;;22.12;61.64;97061.63;8384544;28;20516;-65
2021/07/13 06:19:02;;;;;;;6.13;2.60;;;;;;;22.16;61.87;97046.31;8401269;28;20505;-66
2021/07/13 06:23:06;;;;;;;7.87;2.83;;;;;;;22.14;61.29;97043.03;8402453;28;20199;-66
2021/07/13 06:27:08;;;;;;;12.73;3.60;;;;;;;22.17;61.18;97045.34;8413620;28;20212;-66
2021/07/13 06:31:11;;;;;;;9.57;3.60;;;;;;;22.29;60.90;97049.31;8413580;28;20336;-65
2021/07/13 06:35:14;;;;;;;11.50;3.50;;;;;;;22.26;60.66;97036.50;8397114;28;20219;-66
2021/07/13 06:39:18;;;;;;;6.40;3.30;;;;;;;22.36;60.57;97031.84;8386154;28;20222;-67
2021/07/13 06:43:21;;;;;;;6.87;3.00;;;;;;;22.50;59.36;97040.91;8386062;28;20203;-66
2021/07/13 06:47:24;;;;;;;4.13;2.30;;;;;;;22.53;59.25;97043.22;8389314;28;20214;-66
2021/07/13 06:51:27;;;;;;;5.60;2.80;;;;;;;22.72;58.43;97044.69;8416433;28;20229;-67
2021/07/13 06:55:32;;;;;;;9.27;2.90;;;;;;;22.77;58.84;97045.03;8417118;28;20494;-67
2021/07/13 06:59:35;;;;;;;18.17;3.13;;;;;;;22.87;58.76;97030.84;8419458;28;20400;-66
2021/07/13 07:03:38;;;;;;;10.70;2.87;;;;;;;22.83;59.12;97027.72;8391711;28;20203;-66
2021/07/13 07:07:45;;;;;;;6.00;2.77;;;;;;;23.06;58.37;97027.03;8385194;28;20220;-67
2021/07/13 07:11:49;;;;;;;6.90;2.70;;;;;;;23.28;57.56;97020.16;8394536;28;20230;-67
2021/07/13 07:15:52;;;;;;;6.40;2.77;;;;;;;23.39;57.49;97010.03;8409265;28;20391;-67
2021/07/13 07:19:56;;;;;;;5.83;2.63;;;;;;;23.54;56.82;97015.44;8417507;28;20280;-67
2021/07/13 07:23:59;;;;;;;7.90;3.10;;;;;;;23.61;56.97;97007.66;8417435;28;20203;-67
2021/07/13 07:28:04;;;;;;;6.40;2.80;;;;;;;23.64;56.51;97002.00;8418718;28;20494;-65
2021/07/13 07:32:07;;;;;;;9.33;3.03;;;;;;;23.69;56.86;97002.31;8417912;28;20239;-65
2021/07/13 07:36:11;;;;;;;13.10;2.67;;;;;;;24.22;55.02;97001.63;8416641;28;20391;-67
2021/07/13 07:40:17;;;;;;;4.83;2.30;;;;;;;24.63;55.19;96996.84;8416216;28;20210;-66
2021/07/13 07:44:23;;;;;;;4.43;2.43;;;;;;;24.73;53.40;96986.81;8415950;28;20259;-66
2021/07/13 07:48:26;;;;;;;4.67;2.67;;;;;;;24.93;52.28;96973.84;8415936;28;20200;-69
2021/07/13 07:52:29;;;;;;;4.03;2.73;;;;;;;25.18;50.79;96984.16;8416126;28;20205;-71
2021/07/13 07:56:31;;;;;;;3.40;2.40;;;;;;;25.41;51.15;96972.66;8416125;28;20214;-70
2021/07/13 08:00:35;;;;;;;4.03;2.50;;;;;;;25.50;50.79;96972.34;8416054;28;20203;-69
2021/07/13 08:04:38;;;;;;;3.23;2.50;;;;;;;25.79;51.71;96967.16;8398809;28;20200;-71
2021/07/13 08:08:41;;;;;;;5.20;2.53;;;;;;;26.00;50.57;96984.94;8381792;28;20219;-69
2021/07/13 08:12:44;;;;;;;3.40;2.53;;;;;;;26.10;49.76;96985.41;8382211;28;20455;-72
2021/07/13 08:16:53;;;;;;;2.97;2.60;;;;;;;26.26;49.16;96994.97;8382909;28;20214;-72
2021/07/13 08:20:59;;;;;;;3.00;2.80;;;;;;;26.33;48.84;96998.47;8382271;28;20349;-70
2021/07/13 08:25:02;;;;;;;6.67;2.50;;;;;;;26.41;48.35;96992.25;8382259;28;20210;-71
2021/07/13 08:29:06;;;;;;;5.83;2.67;;;;;;;26.61;47.69;96979.94;8382365;28;20232;-70
2021/07/13 08:33:10;;;;;;;2.70;2.50;;;;;;;26.82;47.80;96975.59;8381920;28;20397;-70
2021/07/13 08:37:13;;;;;;;4.20;3.30;;;;;;;26.74;47.34;96983.72;8380595;28;20208;-73
2021/07/13 08:41:17;;;;;;;4.43;3.07;;;;;;;26.99;47.41;96995.50;8381777;28;20244;-70
2021/07/13 08:45:20;;;;;;;5.20;3.20;;;;;;;26.69;48.17;97000.22;8381785;28;20498;-70
2021/07/13 08:49:24;;;;;;;3.70;2.97;;;;;;;27.36;48.89;96990.84;8387064;28;20226;-69
2021/07/13 08:53:29;;;;;;;5.87;2.80;;;;;;;27.38;46.94;96996.75;8380519;28;20200;-69
2021/07/13 08:57:32;;;;;;;7.43;3.50;;;;;;;27.50;46.36;96995.16;8380529;28;20486;-69
2021/07/13 09:01:35;;;;;;;5.63;3.10;;;;;;;27.82;46.57;97008.78;8380531;28;20213;-69
2021/07/13 09:05:48;;;;;;;5.03;2.83;;;;;;;27.57;46.67;97012.97;8381449;28;20262;-69
2021/07/13 09:09:53;;;;;;;4.97;3.20;;;;;;;26.95;47.66;97010.19;8381260;28;20224;-70
2021/07/13 09:13:59;;;;;;;5.40;3.33;;;;;;;26.66;48.21;97021.88;8381345;28;20202;-70
2021/07/13 09:18:02;;;;;;;3.63;3.17;;;;;;;26.78;48.17;97030.94;8381068;28;20210;-69
2021/07/13 09:22:07;;;;;;;4.40;3.20;;;;;;;26.70;47.94;97034.53;8380764;28;20205;-70
2021/07/13 09:26:09;;;;;;;4.00;3.20;;;;;;;26.89;48.35;97024.25;8380150;28;20481;-70
2021/07/13 09:30:15;;;;;;;8.83;3.60;;;;;;;26.49;48.84;97023.94;8395290;28;20245;-69
2021/07/13 09:34:19;;;;;;;5.17;3.93;;;;;;;27.19;47.96;97008.91;8400745;28;20209;-66
2021/07/13 09:38:24;;;;;;;6.33;3.30;;;;;;;27.68;47.49;97015.91;8380460;28;20203;-66
2021/07/13 09:42:28;;;;;;;2.90;2.70;;;;;;;27.95;47.32;97023.97;8380057;28;20200;-65
2021/07/13 09:46:36;;;;;;;3.57;3.03;;;;;;;27.92;47.23;97029.69;8380564;28;20232;-66
2021/07/13 09:50:40;;;;;;;3.57;3.10;;;;;;;28.33;47.58;97022.59;8387462;28;20226;-65
2021/07/13 09:54:46;;;;;;;3.50;3.20;;;;;;;28.18;47.81;97028.09;8387167;28;20201;-65
2021/07/13 09:58:54;;;;;;;5.87;3.43;;;;;;;27.53;48.65;97030.34;8387345;28;20204;-65
2021/07/13 10:02:57;;;;;;;6.67;3.30;;;;;;;27.18;48.35;97031.19;8386814;28;20204;-65
2021/07/13 10:07:04;;;;;;;4.17;3.03;;;;;;;27.80;47.89;97031.28;8386226;28;20220;-65
2021/07/13 10:11:09;;;;;;;5.90;3.50;;;;;;;28.17;47.36;97032.59;8386761;28;20233;-65
2021/07/13 10:15:12;;;;;;;8.57;3.50;;;;;;;27.57;48.69;97021.78;8386666;28;20270;-65
2021/07/13 10:19:15;;;;;;;3.50;2.97;;;;;;;28.25;45.93;97024.44;8386469;28;20382;-65
2021/07/13 10:23:18;;;;;;;5.47;3.17;;;;;;;27.39;46.45;97011.69;8386121;28;20208;-65
2021/07/13 10:27:30;;;;;;;3.07;2.77;;;;;;;28.22;45.65;97005.41;8386071;28;20202;-65
2021/07/13 10:31:36;;;;;;;3.20;2.50;;;;;;;27.56;46.39;96992.75;8385729;28;20246;-65
2021/07/13 10:35:39;;;;;;;3.57;2.60;;;;;;;27.40;46.52;96988.59;8385574;28;20269;-65
2021/07/13 10:39:46;;;;;;;5.10;2.67;;;;;;;28.04;45.73;96993.47;8385446;28;20208;-66
2021/07/13 10:43:55;;;;;;;2.80;2.60;;;;;;;28.94;46.16;96985.09;8385937;28;20466;-66
2021/07/13 10:48:06;;;;;;;11.33;2.90;;;;;;;28.23;45.86;96989.19;8385295;28;20203;-67
2021/07/13 10:52:09;;;;;;;3.43;2.57;;;;;;;29.00;45.37;96989.59;8385452;28;20568;-66
2021/07/13 10:56:13;;;;;;;5.17;3.07;;;;;;;29.36;44.39;97003.44;8385139;28;20200;-65
2021/07/13 11:00:18;;;;;;;3.77;3.03;;;;;;;28.57;44.22;96995.38;8383903;28;20199;-66
2021/07/13 11:04:25;;;;;;;3.13;2.83;;;;;;;28.21;45.79;97007.22;8389349;28;20195;-66
2021/07/13 11:08:52;;;;;;;7.03;2.60;;;;;;;28.78;42.49;97010.31;8401316;28;20215;-66
2021/07/13 11:12:55;;;;;;;3.83;2.57;;;;;;;29.00;41.62;97002.91;8410261;28;20230;-65
2021/07/13 11:16:59;;;;;;;2.80;2.60;;;;;;;29.43;40.43;96997.06;8417760;28;20201;-66
2021/07/13 11:21:14;;;;;;;4.93;2.47;;;;;;;29.24;41.99;97006.78;8417319;28;20209;-66
2021/07/13 11:25:31;;;;;;;2.87;2.20;;;;;;;29.73;40.00;97014.41;8416910;28;20295;-66
2021/07/13 11:29:34;;;;;;;9.33;2.87;;;;;;;29.13;42.63;97020.75;8416903;28;20231;-67
2021/07/13 11:33:40;;;;;;;7.07;2.20;;;;;;;29.34;43.35;97016.16;8405294;28;20223;-67
2021/07/13 11:37:43;;;;;;;2.60;2.40;;;;;;;29.01;44.61;97025.03;8400725;28;20198;-67
2021/07/13 11:41:46;;;;;;;3.70;2.30;;;;;;;29.02;43.51;97027.50;8399872;28;20203;-65
2021/07/13 11:45:49;;;;;;;4.37;2.50;;;;;;;28.99;43.11;97027.09;8402571;28;20520;-65
2021/07/13 11:49:54;;;;;;;5.53;2.67;;;;;;;29.20;42.20;97026.84;8401772;28;20556;-66
2021/07/13 11:54:00;;;;;;;4.00;2.50;;;;;;;28.63;44.02;97025.69;8400579;28;20390;-66
2021/07/13 11:58:04;;;;;;;2.50;2.30;;;;;;;28.30;44.46;97033.66;8399022;28;20505;-66
2021/07/13 12:02:08;;;;;;;3.47;2.40;;;;;;;28.16;44.63;97035.47;8398709;28;20198;-66
2021/07/13 12:06:14;;;;;;;2.60;2.30;;;;;;;28.05;45.16;97047.53;8398656;28;20213;-65
2021/07/13 12:10:17;;;;;;;3.10;2.40;;;;;;;27.79;46.46;97050.91;8397780;28;20509;-65
2021/07/13 12:14:21;;;;;;;4.33;2.30;;;;;;;27.48;45.83;97062.84;8392525;28;20309;-65
2021/07/13 12:18:24;;;;;;;5.17;2.40;;;;;;;27.26;47.38;97075.41;8382424;28;20216;-65
2021/07/13 12:22:28;;;;;;;2.50;2.30;;;;;;;27.14;47.61;97085.72;8382190;28;20205;-65
2021/07/13 12:26:32;;;;;;;4.70;2.57;;;;;;;27.01;47.96;97083.00;8382305;28;20221;-65
2021/07/13 12:30:35;;;;;;;2.83;2.43;;;;;;;26.89;48.29;97096.81;8381773;28;20244;-79
2021/07/13 12:34:41;;;;;;;2.57;2.30;;;;;;;26.76;48.55;97114.47;8382270;28;20212;-74
2021/07/13 12:38:46;;;;;;;3.97;2.60;;;;;;;26.49;48.18;97127.47;8381926;28;20205;-66
2021/07/13 12:42:49;;;;;;;2.87;2.40;;;;;;;26.30;50.83;97136.88;8382298;28;20499;-66
2021/07/13 12:46:52;;;;;;;3.40;2.60;;;;;;;25.92;52.92;97145.81;8392805;28;20271;-67
2021/07/13 12:50:58;;;;;;;4.83;2.70;;;;;;;25.83;53.88;97152.19;8397599;28;20436;-66
2021/07/13 12:55:05;;;;;;;5.00;3.00;;;;;;;25.43;54.68;97169.41;8397412;28;20217;-65
2021/07/13 12:59:09;;;;;;;3.87;2.70;;;;;;;25.30;55.18;97178.81;8394195;28;20203;-66
2021/07/13 13:03:13;;;;;;;6.73;2.80;;;;;;;25.12;54.92;97176.44;8397050;28;20198;-66
2021/07/13 13:07:20;;;;;;;4.03;2.77;;;;;;;25.17;55.10;97162.66;8401172;28;20229;-67
2021/07/13 13:11:34;;;;;;;4.27;2.70;;;;;;;25.38;54.60;97171.75;8414336;28;20527;-67
2021/07/13 13:15:37;;;;;;;6.53;2.63;;;;;;;25.42;54.54;97173.88;8414291;28;20230;-67
2021/07/13 13:19:41;;;;;;;2.87;2.53;;;;;;;25.03;55.20;97188.09;8414134;28;20363;-67
2021/07/13 13:23:43;;;;;;;3.90;2.90;;;;;;;25.04;55.05;97189.75;8413665;28;20526;-67
2021/07/13 13:27:48;;;;;;;4.77;2.60;;;;;;;25.10;54.74;97194.34;8413872;28;20203;-66
2021/07/13 13:31:51;;;;;;;3.17;2.27;;;;;;;25.43;53.54;97183.47;8413914;28;20235;-65
2021/07/13 13:36:10;;;;;;;6.07;2.73;;;;;;;25.16;54.64;97188.31;8397197;28;20203;-67
2021/07/13 13:40:13;;;;;;;3.10;1.93;;;;;;;24.76;55.97;97194.78;8385090;28;20204;-65
2021/07/13 13:44:17;;;;;;;2.97;1.73;;;;;;;24.67;55.89;97186.06;8379797;28;20451;-66
2021/07/13 13:48:20;;;;;;;3.60;1.57;;;;;;;24.69;56.09;97205.22;8380054;28;20199;-65
2021/07/13 13:52:23;;;;;;;3.83;1.40;;;;;;;24.45;55.54;97218.59;8379834;28;20374;-64
2021/07/13 13:56:27;;;;;;;3.63;1.50;;;;;;;24.15;55.81;97227.16;8379897;28;20207;-65
2021/07/13 14:00:32;;;;;;;4.00;1.10;;;;;;;23.69;55.78;97256.03;8408233;28;20206;-65
2021/07/13 14:04:35;;;;;;;4.63;0.97;;;;;;;23.68;55.98;97254.38;8406323;28;20192;-65
2021/07/13 14:08:40;;;;;;;2.73;1.10;;;;;;;23.40;55.91;97254.75;8406184;28;20509;-65
2021/07/13 14:12:43;;;;;;;2.03;0.70;;;;;;;23.35;55.56;97262.34;8413299;28;20222;-65
2021/07/13 14:16:47;;;;;;;2.93;0.80;;;;;;;22.97;55.90;97259.31;8413006;28;20202;-65
2021/07/13 14:20:51;;;;;;;2.80;0.80;;;;;;;22.91;56.81;97257.34;8413328;28;20227;-69
2021/07/13 14:24:54;;;;;;;4.67;0.80;;;;;;;22.82;55.65;97245.94;8412978;28;20202;-69
2021/07/13 14:28:57;;;;;;;2.47;0.67;;;;;;;22.55;56.27;97243.59;8410763;28;20218;-69
2021/07/13 14:33:01;;;;;;;1.10;0.50;;;;;;;22.39;56.26;97244.34;8412514;28;20229;-68
2021/07/13 14:37:04;;;;;;;0.63;0.30;;;;;;;22.14;56.12;97243.41;8418209;28;20558;-69
2021/07/13 14:41:08;;;;;;;1.20;0.40;;;;;;;22.23;57.61;97255.66;8418495;28;20198;-70
2021/07/13 14:45:12;;;;;;;1.37;0.40;;;;;;;22.14;58.07;97261.84;8416341;28;20210;-71
2021/07/13 14:49:16;;;;;;;5.73;0.70;;;;;;;22.06;58.01;97296.91;8414375;28;20195;-71
2021/07/13 14:53:21;;;;;;;2.57;0.43;;;;;;;21.38;60.51;97284.41;8405621;28;20326;-70
2021/07/13 14:57:23;;;;;;;1.00;0.40;;;;;;;21.54;59.72;97266.13;8416022;28;20536;-71
2021/07/13 15:01:26;;;;;;;1.07;0.50;;;;;;;21.55;59.01;97273.06;8417134;28;20202;-70
2021/07/13 15:05:31;;;;;;;1.43;0.60;;;;;;;21.50;60.23;97267.44;8415041;28;20583;-67
2021/07/13 15:09:35;;;;;;;2.47;0.40;;;;;;;21.42;59.46;97280.53;8416674;28;20203;-66
2021/07/13 15:13:39;;;;;;;2.50;0.60;;;;;;;21.60;60.03;97297.13;8411082;28;20227;-66
2021/07/13 15:17:41;;;;;;;3.20;0.70;;;;;;;21.58;60.30;97322.00;8413016;28;20191;-67
2021/07/13 15:21:46;;;;;;;2.90;0.50;;;;;;;21.30;60.33;97340.47;8411374;28;20198;-67
2021/07/13 15:25:49;;;;;;;6.03;0.73;;;;;;;21.38;60.83;97360.78;8414666;28;20200;-66
2021/07/13 15:29:51;;;;;;;3.13;1.00;;;;;;;21.28;61.27;97380.16;8416634;28;20230;-66
2021/07/13 15:33:54;;;;;;;2.30;0.50;;;;;;;21.14;61.26;97395.63;8415172;28;20525;-67
2021/07/13 15:37:58;;;;;;;6.23;1.00;;;;;;;21.51;61.48;97399.97;8417123;28;20520;-66
2021/07/13 15:42:05;;;;;;;4.90;0.80;;;;;;;21.38;60.79;97410.81;8415893;28;20475;-67
2021/07/13 15:46:08;;;;;;;8.47;1.00;;;;;;;21.12;61.85;97408.13;8416766;28;20191;-66
2021/07/13 15:50:11;;;;;;;3.23;0.80;;;;;;;21.15;63.09;97408.66;8416994;28;20214;-67
2021/07/13 15:54:15;;;;;;;5.23;0.70;;;;;;;21.11;62.78;97406.44;8416983;28;20327;-66
2021/07/13 15:58:18;;;;;;;4.60;0.70;;;;;;;21.02;62.23;97402.91;8416896;28;20199;-67
2021/07/13 16:02:21;;;;;;;2.17;0.60;;;;;;;20.69;63.24;97411.25;8406051;28;20200;-67
2021/07/13 16:06:23;;;;;;;3.20;0.80;;;;;;;20.75;63.11;97409.81;8396558;28;20217;-67
2021/07/13 16:10:28;;;;;;;1.90;0.80;;;;;;;20.74;62.51;97426.59;8416208;28;20201;-68
2021/07/13 16:14:31;;;;;;;5.77;1.00;;;;;;;20.82;62.93;97420.59;8415938;28;20223;-67
2021/07/13 16:18:34;;;;;;;2.17;0.80;;;;;;;20.74;64.07;97395.00;8415970;28;20195;-66
2021/07/13 16:22:37;;;;;;;1.47;0.83;;;;;;;20.79;63.48;97369.09;8416357;28;20218;-66
2021/07/13 16:26:41;;;;;;;12.60;1.20;;;;;;;20.77;64.10;97357.91;8416231;28;20430;-66
2021/07/13 16:30:44;;;;;;;4.50;0.90;;;;;;;20.60;64.11;97335.81;8415913;28;20248;-66
2021/07/13 16:34:47;;;;;;;6.13;1.10;;;;;;;20.64;64.53;97328.47;8415909;28;20404;-66
2021/07/13 16:38:50;;;;;;;3.93;0.97;;;;;;;20.51;64.85;97287.50;8415706;28;20201;-66
2021/07/13 16:42:54;;;;;;;3.27;1.10;;;;;;;20.48;64.98;97265.94;8415330;28;20204;-65
2021/07/13 16:46:57;;;;;;;3.10;0.87;;;;;;;20.48;64.69;97263.31;8415103;28;20200;-66
2021/07/13 16:50:59;;;;;;;2.53;0.90;;;;;;;20.45;65.09;97277.59;8415328;28;20205;-66
2021/07/13 16:55:06;;;;;;;4.50;1.40;;;;;;;20.53;64.59;97284.75;8415459;28;20380;-66
2021/07/13 16:59:10;;;;;;;3.07;1.10;;;;;;;20.46;64.80;97268.72;8414574;28;20201;-66
2021/07/13 17:03:13;;;;;;;1.80;0.90;;;;;;;20.50;65.70;97225.38;8414859;28;20285;-66
2021/07/13 17:07:15;;;;;;;3.93;0.90;;;;;;;20.32;66.22;97277.09;8414528;28;20231;-66
2021/07/13 17:11:18;;;;;;;5.23;1.20;;;;;;;20.30;65.78;97261.47;8414601;28;20374;-66
2021/07/13 17:15:25;;;;;;;2.97;0.77;;;;;;;20.34;65.67;97230.47;8414384;28;20224;-66
2021/07/13 17:19:28;;;;;;;6.27;0.90;;;;;;;20.46;65.30;97289.75;8414470;28;20281;-66
2021/07/13 17:23:30;;;;;;;3.07;0.90;;;;;;;20.48;64.83;97295.69;8414222;28;20229;-66
2021/07/13 17:27:33;;;;;;;5.70;1.17;;;;;;;20.57;65.11;97320.28;8414408;28;20207;-66
2021/07/13 17:31:38;;;;;;;1.67;0.87;;;;;;;20.57;65.00;97343.16;8414029;28;20513;-66
2021/07/13 17:35:42;;;;;;;4.83;0.90;;;;;;;20.50;64.82;97361.28;8414300;28;20301;-66
2021/07/13 17:39:45;;;;;;;2.70;0.90;;;;;;;20.49;64.58;97383.31;8414161;28;20214;-66
2021/07/13 17:43:47;;;;;;;2.57;0.80;;;;;;;20.52;64.64;97411.94;8411469;28;20196;-65
2021/07/13 17:47:52;;;;;;;4.67;1.10;;;;;;;20.53;65.04;97423.31;8413612;28;20214;-66
2021/07/13 17:51:55;;;;;;;2.60;1.23;;;;;;;20.52;65.38;97414.56;8414184;28;20209;-66
2021/07/13 17:55:57;;;;;;;11.07;1.30;;;;;;;20.58;65.45;97403.50;8414035;28;20519;-65
2021/07/13 18:00:01;;;;;;;6.93;0.90;;;;;;;20.52;65.06;97411.94;8414114;28;20210;-66
2021/07/13 18:04:06;;;;;;;5.53;1.10;;;;;;;20.51;65.40;97412.94;8413877;28;20207;-67
2021/07/13 18:08:08;;;;;;;7.13;1.23;;;;;;;20.36;65.80;97406.47;8414263;28;20226;-67
2021/07/13 18:12:11;;;;;;;6.50;1.30;;;;;;;20.55;65.07;97418.75;8420233;28;20225;-66
2021/07/13 18:16:14;;;;;;;6.87;1.47;;;;;;;20.58;64.93;97418.44;8420593;28;20478;-66
2021/07/13 18:20:18;;;;;;;6.57;1.07;;;;;;;20.66;65.01;97410.69;8420163;28;20203;-66
2021/07/13 18:24:21;;;;;;;8.60;1.17;;;;;;;20.53;64.75;97411.00;8420292;28;20206;-66
2021/07/13 18:28:24;;;;;;;4.40;1.30;;;;;;;20.67;65.45;97415.78;8419871;28;20227;-66
2021/07/13 18:32:27;;;;;;;1.67;0.70;;;;;;;20.67;64.19;97420.22;8419839;28;20199;-66
2021/07/13 18:36:32;;;;;;;2.27;0.90;;;;;;;20.62;64.37;97428.56;8419601;28;20232;-66
2021/07/13 18:40:34;;;;;;;2.67;0.80;;;;;;;20.62;64.45;97430.34;8419548;28;20200;-66
2021/07/13 18:44:37;;;;;;;9.80;1.00;;;;;;;20.61;65.16;97424.28;8419382;28;20207;-67
2021/07/13 18:48:40;;;;;;;1.67;1.20;;;;;;;20.49;63.81;97428.03;8414295;28;20191;-66
2021/07/13 18:52:44;;;;;;;1.67;1.23;;;;;;;20.35;64.28;97441.63;8406940;28;20225;-66
2021/07/13 18:56:47;;;;;;;4.47;1.30;;;;;;;20.24;64.93;97442.63;8412648;28;20471;-66
2021/07/13 19:00:50;;;;;;;1.80;1.40;;;;;;;20.30;64.66;97426.28;8401300;28;20198;-66
2021/07/13 19:04:53;;;;;;;4.70;1.37;;;;;;;20.17;64.66;97416.06;8401114;28;20208;-66
2021/07/13 19:08:58;;;;;;;5.03;1.50;;;;;;;20.13;64.76;97416.50;8400766;28;20206;-66